TimeBST,TemperatureF,Dew PointF,Humidity,Sea Level PressureIn,VisibilityMPH,Wind Direction,Wind SpeedMPH,Gust SpeedMPH,PrecipitationIn,Events,Conditions,WindDirDegrees,DateUTC
12:20 AM,64.4,55.4,73,29.92,6.2,South,5.8,-,N/A,,Partly Cloudy,180,2013-07-24 23:20:00
12:50 AM,64.4,55.4,73,29.92,-9999.0,South,6.9,-,N/A,,Clear,190,2013-07-24 23:50:00
1:50 AM,62.6,57.2,82,29.92,5.0,SSW,8.1,-,N/A,Rain,Rain Showers,210,2013-07-25 00:50:00
6:50 AM,62.6,59.0,88,29.86,5.6,SSE,4.6,-,N/A,,Scattered Clouds,160,2013-07-25 05:50:00
7:20 AM,62.6,60.8,94,29.86,5.6,SSE,4.6,-,N/A,,Scattered Clouds,150,2013-07-25 06:20:00
8:20 AM,62.6,60.8,94,29.86,5.6,SSE,4.6,-,N/A,,Scattered Clouds,150,2013-07-25 07:20:00
8:50 AM,62.6,60.8,94,29.86,6.2,SSE,4.6,-,N/A,,Scattered Clouds,150,2013-07-25 07:50:00
9:20 AM,62.6,59.0,88,29.86,2.5,SSE,4.6,-,N/A,,Haze,150,2013-07-25 08:20:00
9:50 AM,64.4,60.8,88,29.86,4.3,SE,9.2,-,N/A,,Mostly Cloudy,130,2013-07-25 08:50:00
10:20 AM,64.4,60.8,88,29.89,5.0,SSE,5.8,-,N/A,,Mostly Cloudy,150,2013-07-25 09:20:00
10:50 AM,66.2,60.8,83,29.89,5.0,South,6.9,-,N/A,,Mostly Cloudy,190,2013-07-25 09:50:00
11:20 AM,66.2,60.8,83,29.89,5.6,South,6.9,-,N/A,,Mostly Cloudy,190,2013-07-25 10:20:00
11:50 AM,69.8,62.6,78,29.89,5.6,SSW,6.9,-,N/A,,Mostly Cloudy,200,2013-07-25 10:50:00
12:20 PM,71.6,60.8,69,29.86,5.6,South,10.4,-,N/A,,Mostly Cloudy,170,2013-07-25 11:20:00
12:50 PM,73.4,60.8,65,29.86,5.6,SW,12.7,-,N/A,,Scattered Clouds,220,2013-07-25 11:50:00
1:20 PM,75.2,59.0,57,29.86,6.2,SSW,9.2,-,N/A,,Scattered Clouds,210,2013-07-25 12:20:00
1:50 PM,77.0,57.2,50,29.86,6.2,SSW,12.7,-,N/A,,Partly Cloudy,210,2013-07-25 12:50:00
2:20 PM,78.8,57.2,47,29.86,6.2,SSW,11.5,-,N/A,,Scattered Clouds,210,2013-07-25 13:20:00
2:50 PM,78.8,55.4,44,29.86,6.2,South,12.7,-,N/A,,Scattered Clouds,180,2013-07-25 13:50:00
3:20 PM,77.0,55.4,47,29.86,6.2,SSW,10.4,-,N/A,,Scattered Clouds,210,2013-07-25 14:20:00
3:50 PM,78.8,55.4,44,29.86,6.2,SW,11.5,-,N/A,,Scattered Clouds,220,2013-07-25 14:50:00
4:20 PM,78.8,55.4,44,29.86,6.2,SW,10.4,-,N/A,,Scattered Clouds,220,2013-07-25 15:20:00
4:50 PM,78.8,55.4,44,29.86,6.2,SSW,9.2,-,N/A,,Scattered Clouds,210,2013-07-25 15:50:00
5:20 PM,77.0,55.4,47,29.86,6.2,South,8.1,-,N/A,,Scattered Clouds,190,2013-07-25 16:20:00
5:50 PM,77.0,57.2,50,29.86,6.2,SW,9.2,-,N/A,,Scattered Clouds,230,2013-07-25 16:50:00
6:20 PM,77.0,55.4,47,29.86,6.2,SW,10.4,-,N/A,,Scattered Clouds,230,2013-07-25 17:20:00
6:50 PM,75.2,55.4,50,29.86,6.2,WSW,12.7,-,N/A,,Scattered Clouds,240,2013-07-25 17:50:00
7:20 PM,75.2,55.4,50,29.86,6.2,WSW,11.5,-,N/A,,Scattered Clouds,240,2013-07-25 18:20:00
7:50 PM,73.4,53.6,50,29.86,6.2,SW,11.5,-,N/A,,Scattered Clouds,230,2013-07-25 18:50:00
8:20 PM,71.6,53.6,53,29.86,6.2,SW,6.9,-,N/A,,Partly Cloudy,230,2013-07-25 19:20:00
8:50 PM,69.8,53.6,56,29.86,6.2,SW,6.9,-,N/A,,Partly Cloudy,230,2013-07-25 19:50:00
9:20 PM,68.0,53.6,60,29.89,-9999.0,SW,5.8,-,N/A,,Clear,220,2013-07-25 20:20:00
9:50 PM,68.0,53.6,60,29.89,-9999.0,SW,6.9,-,N/A,,Clear,220,2013-07-25 20:50:00
10:20 PM,66.2,53.6,64,29.89,-9999.0,SW,6.9,-,N/A,,Clear,220,2013-07-25 21:20:00
10:50 PM,66.2,53.6,64,29.89,-9999.0,SSW,5.8,-,N/A,,Clear,210,2013-07-25 21:50:00
11:20 PM,64.4,53.6,68,29.89,6.2,SSW,5.8,-,N/A,,Partly Cloudy,210,2013-07-25 22:20:00
11:50 PM,64.4,53.6,68,29.89,-9999.0,SW,5.8,-,N/A,,Clear,220,2013-07-25 22:50:00